sensor_id;sensor_type;location;lat;lon;timestamp;pressure;altitude;pressure_sealevel;temperature;humidity
21504;BME280;10913;51.992;9.228;2023-06-22T00:01:57;100593.34;;;21.21;94.13
21504;BME280;10913;51.992;9.228;2023-06-22T00:04:23;100601.41;;;21.21;93.90
21504;BME280;10913;51.992;9.228;2023-06-22T00:06:48;100595.28;;;21.17;94.02
21504;BME280;10913;51.992;9.228;2023-06-22T00:09:13;100599.84;;;21.15;94.34
21504;BME280;10913;51.992;9.228;2023-06-22T00:11:39;100592.00;;;21.11;94.57
21504;BME280;10913;51.992;9.228;2023-06-22T00:14:04;100586.75;;;21.08;94.92
21504;BME280;10913;51.992;9.228;2023-06-22T00:16:31;100587.69;;;21.07;94.88
21504;BME280;10913;51.992;9.228;2023-06-22T00:18:58;100584.22;;;21.05;94.91
21504;BME280;10913;51.992;9.228;2023-06-22T00:21:25;100581.53;;;21.05;94.67
21504;BME280;10913;51.992;9.228;2023-06-22T00:23:50;100572.66;;;21.03;94.50
21504;BME280;10913;51.992;9.228;2023-06-22T00:26:16;100569.16;;;21.01;94.59
21504;BME280;10913;51.992;9.228;2023-06-22T00:28:42;100568.34;;;20.98;94.72
21504;BME280;10913;51.992;9.228;2023-06-22T00:31:07;100565.66;;;20.98;95.16
21504;BME280;10913;51.992;9.228;2023-06-22T00:33:32;100556.84;;;20.96;95.37
21504;BME280;10913;51.992;9.228;2023-06-22T00:35:58;100551.47;;;20.96;95.02
21504;BME280;10913;51.992;9.228;2023-06-22T00:38:23;100563.22;;;20.94;95.87
21504;BME280;10913;51.992;9.228;2023-06-22T00:40:49;100561.72;;;20.87;96.33
21504;BME280;10913;51.992;9.228;2023-06-22T00:43:14;100562.94;;;20.80;96.90
21504;BME280;10913;51.992;9.228;2023-06-22T00:45:39;100565.72;;;20.78;96.90
21504;BME280;10913;51.992;9.228;2023-06-22T00:48:06;100561.28;;;20.77;96.58
21504;BME280;10913;51.992;9.228;2023-06-22T00:50:33;100563.03;;;20.78;96.22
21504;BME280;10913;51.992;9.228;2023-06-22T00:53:03;100555.91;;;20.77;96.02
21504;BME280;10913;51.992;9.228;2023-06-22T00:55:42;100553.13;;;20.79;95.68
21504;BME280;10913;51.992;9.228;2023-06-22T00:58:09;100555.91;;;20.77;95.82
21504;BME280;10913;51.992;9.228;2023-06-22T01:00:36;100547.06;;;20.75;95.98
21504;BME280;10913;51.992;9.228;2023-06-22T01:03:02;100540.81;;;20.75;96.18
21504;BME280;10913;51.992;9.228;2023-06-22T01:05:28;100541.69;;;20.75;96.20
21504;BME280;10913;51.992;9.228;2023-06-22T01:08:41;100544.38;;;20.75;96.74
21504;BME280;10913;51.992;9.228;2023-06-22T01:18:13;100542.88;;;20.68;97.59
21504;BME280;10913;51.992;9.228;2023-06-22T01:20:40;100538.31;;;20.70;97.37
21504;BME280;10913;51.992;9.228;2023-06-22T01:23:10;100549.88;;;20.72;97.27
21504;BME280;10913;51.992;9.228;2023-06-22T01:28:42;100537.31;;;20.73;97.24
21504;BME280;10913;51.992;9.228;2023-06-22T01:31:09;100537.38;;;20.71;97.70
21504;BME280;10913;51.992;9.228;2023-06-22T01:33:39;100527.72;;;20.67;97.99
21504;BME280;10913;51.992;9.228;2023-06-22T01:36:06;100538.44;;;20.67;98.05
21504;BME280;10913;51.992;9.228;2023-06-22T01:38:32;100530.34;;;20.69;98.20
21504;BME280;10913;51.992;9.228;2023-06-22T01:40:59;100530.34;;;20.69;98.21
21504;BME280;10913;51.992;9.228;2023-06-22T01:43:26;100531.28;;;20.68;98.62
21504;BME280;10913;51.992;9.228;2023-06-22T01:45:53;100529.59;;;20.65;98.85
21504;BME280;10913;51.992;9.228;2023-06-22T01:48:19;100524.34;;;20.62;99.00
21504;BME280;10913;51.992;9.228;2023-06-22T01:50:44;100520.84;;;20.60;99.11
21504;BME280;10913;51.992;9.228;2023-06-22T01:53:10;100526.22;;;20.60;99.53
21504;BME280;10913;51.992;9.228;2023-06-22T01:55:35;100533.63;;;20.55;100.00
21504;BME280;10913;51.992;9.228;2023-06-22T01:58:01;100536.53;;;20.50;100.00
21504;BME280;10913;51.992;9.228;2023-06-22T02:00:28;100531.34;;;20.46;100.00
21504;BME280;10913;51.992;9.228;2023-06-22T02:02:59;100539.34;;;20.47;100.00
21504;BME280;10913;51.992;9.228;2023-06-22T02:05:35;100534.78;;;20.49;100.00
21504;BME280;10913;51.992;9.228;2023-06-22T02:08:21;100535.66;;;20.50;99.96
21504;BME280;10913;51.992;9.228;2023-06-22T02:10:48;100535.66;;;20.50;99.89
21504;BME280;10913;51.992;9.228;2023-06-22T02:13:14;100548.13;;;20.51;99.67
21504;BME280;10913;51.992;9.228;2023-06-22T02:15:41;100550.00;;;20.49;100.00
21504;BME280;10913;51.992;9.228;2023-06-22T02:18:07;100558.13;;;20.47;100.00
21504;BME280;10913;51.992;9.228;2023-06-22T02:20:32;100559.94;;;20.47;100.00
21504;BME280;10913;51.992;9.228;2023-06-22T02:22:57;100553.75;;;20.45;100.00
21504;BME280;10913;51.992;9.228;2023-06-22T02:25:23;100555.50;;;20.46;100.00
21504;BME280;10913;51.992;9.228;2023-06-22T02:27:48;100548.25;;;20.48;100.00
21504;BME280;10913;51.992;9.228;2023-06-22T02:30:14;100546.50;;;20.47;100.00
21504;BME280;10913;51.992;9.228;2023-06-22T02:32:41;100561.75;;;20.46;100.00
21504;BME280;10913;51.992;9.228;2023-06-22T02:35:08;100554.56;;;20.47;100.00
21504;BME280;10913;51.992;9.228;2023-06-22T02:37:35;100564.50;;;20.45;100.00
21504;BME280;10913;51.992;9.228;2023-06-22T02:40:05;100558.19;;;20.46;100.00
21504;BME280;10913;51.992;9.228;2023-06-22T02:42:32;100561.81;;;20.45;100.00
21504;BME280;10913;51.992;9.228;2023-06-22T02:44:57;100563.63;;;20.44;100.00
21504;BME280;10913;51.992;9.228;2023-06-22T02:47:22;100563.63;;;20.44;100.00
21504;BME280;10913;51.992;9.228;2023-06-22T02:49:48;100569.78;;;20.46;100.00
21504;BME280;10913;51.992;9.228;2023-06-22T02:52:13;100559.88;;;20.48;100.00
21504;BME280;10913;51.992;9.228;2023-06-22T02:54:39;100562.50;;;20.50;100.00
21504;BME280;10913;51.992;9.228;2023-06-22T02:57:04;100558.88;;;20.51;100.00
21504;BME280;10913;51.992;9.228;2023-06-22T02:59:30;100572.22;;;20.52;100.00
21504;BME280;10913;51.992;9.228;2023-06-22T03:01:55;100568.66;;;20.52;100.00
21504;BME280;10913;51.992;9.228;2023-06-22T03:04:21;100575.84;;;20.51;100.00
21504;BME280;10913;51.992;9.228;2023-06-22T03:06:46;100575.91;;;20.50;100.00
21504;BME280;10913;51.992;9.228;2023-06-22T03:09:16;100577.66;;;20.51;100.00
21504;BME280;10913;51.992;9.228;2023-06-22T03:11:42;100578.59;;;20.50;100.00
21504;BME280;10913;51.992;9.228;2023-06-22T03:14:07;100571.41;;;20.50;100.00
21504;BME280;10913;51.992;9.228;2023-06-22T03:16:33;100574.09;;;20.50;100.00
21504;BME280;10913;51.992;9.228;2023-06-22T03:18:59;100574.03;;;20.52;100.00
21504;BME280;10913;51.992;9.228;2023-06-22T03:21:27;100562.34;;;20.53;100.00
21504;BME280;10913;51.992;9.228;2023-06-22T03:23:53;100568.53;;;20.55;100.00
21504;BME280;10913;51.992;9.228;2023-06-22T03:26:18;100558.59;;;20.57;100.00
21504;BME280;10913;51.992;9.228;2023-06-22T03:28:44;100555.81;;;20.58;100.00
21504;BME280;10913;51.992;9.228;2023-06-22T03:31:10;100548.75;;;20.57;100.00
21504;BME280;10913;51.992;9.228;2023-06-22T03:33:35;100549.53;;;20.59;100.00
21504;BME280;10913;51.992;9.228;2023-06-22T03:36:01;100551.25;;;20.60;100.00
21504;BME280;10913;51.992;9.228;2023-06-22T03:38:26;100552.13;;;20.61;100.00
21504;BME280;10913;51.992;9.228;2023-06-22T03:40:51;100545.03;;;20.60;100.00
21504;BME280;10913;51.992;9.228;2023-06-22T03:43:17;100547.88;;;20.57;100.00
21504;BME280;10913;51.992;9.228;2023-06-22T03:45:42;100549.75;;;20.55;100.00
21504;BME280;10913;51.992;9.228;2023-06-22T03:48:10;100544.38;;;20.55;100.00
21504;BME280;10913;51.992;9.228;2023-06-22T03:50:36;100549.75;;;20.55;100.00
21504;BME280;10913;51.992;9.228;2023-06-22T03:53:01;100545.25;;;20.55;100.00
21504;BME280;10913;51.992;9.228;2023-06-22T03:55:27;100541.63;;;20.56;100.00
21504;BME280;10913;51.992;9.228;2023-06-22T03:57:53;100545.97;;;20.59;100.00
21504;BME280;10913;51.992;9.228;2023-06-22T04:00:22;100547.72;;;20.60;100.00
21504;BME280;10913;51.992;9.228;2023-06-22T04:02:47;100540.47;;;20.62;100.00
21504;BME280;10913;51.992;9.228;2023-06-22T04:05:13;100543.09;;;20.63;100.00
21504;BME280;10913;51.992;9.228;2023-06-22T04:07:38;100543.97;;;20.64;100.00
21504;BME280;10913;51.992;9.228;2023-06-22T04:10:05;100544.75;;;20.66;100.00
21504;BME280;10913;51.992;9.228;2023-06-22T04:12:30;100543.81;;;20.67;100.00
21504;BME280;10913;51.992;9.228;2023-06-22T04:14:56;100554.56;;;20.67;100.00
21504;BME280;10913;51.992;9.228;2023-06-22T04:17:22;100549.06;;;20.70;100.00
21504;BME280;10913;51.992;9.228;2023-06-22T04:19:50;100555.25;;;20.72;100.00
21504;BME280;10913;51.992;9.228;2023-06-22T04:22:15;100555.19;;;20.74;100.00
21504;BME280;10913;51.992;9.228;2023-06-22T04:24:41;100553.31;;;20.76;100.00
21504;BME280;10913;51.992;9.228;2023-06-22T04:27:06;100562.22;;;20.76;100.00
21504;BME280;10913;51.992;9.228;2023-06-22T04:29:31;100554.97;;;20.78;100.00
21504;BME280;10913;51.992;9.228;2023-06-22T04:31:57;100558.50;;;20.79;100.00
21504;BME280;10913;51.992;9.228;2023-06-22T04:34:24;100560.19;;;20.81;100.00
21504;BME280;10913;51.992;9.228;2023-06-22T04:36:53;100561.00;;;20.83;100.00
21504;BME280;10913;51.992;9.228;2023-06-22T04:39:18;100556.34;;;20.87;100.00
21504;BME280;10913;51.992;9.228;2023-06-22T04:41:44;100549.97;;;20.89;100.00
21504;BME280;10913;51.992;9.228;2023-06-22T04:44:28;100553.47;;;20.91;100.00
21504;BME280;10913;51.992;9.228;2023-06-22T04:46:58;100545.34;;;20.93;100.00
21504;BME280;10913;51.992;9.228;2023-06-22T04:49:30;100551.59;;;20.93;100.00
21504;BME280;10913;51.992;9.228;2023-06-22T04:52:00;100551.88;;;20.87;100.00
21504;BME280;10913;51.992;9.228;2023-06-22T04:54:26;100550.13;;;20.86;100.00
21504;BME280;10913;51.992;9.228;2023-06-22T04:56:52;100548.38;;;20.85;100.00
21504;BME280;10913;51.992;9.228;2023-06-22T04:59:24;100540.44;;;20.82;100.00
21504;BME280;10913;51.992;9.228;2023-06-22T05:01:58;100546.63;;;20.84;100.00
21504;BME280;10913;51.992;9.228;2023-06-22T05:04:26;100551.88;;;20.87;100.00
21504;BME280;10913;51.992;9.228;2023-06-22T05:06:53;100544.47;;;20.92;100.00
21504;BME280;10913;51.992;9.228;2023-06-22T05:09:20;100536.28;;;20.95;100.00
21504;BME280;10913;51.992;9.228;2023-06-22T05:11:46;100541.41;;;21.00;100.00
21504;BME280;10913;51.992;9.228;2023-06-22T05:14:11;100542.09;;;21.05;100.00
21504;BME280;10913;51.992;9.228;2023-06-22T05:16:38;100541.88;;;21.10;100.00
21504;BME280;10913;51.992;9.228;2023-06-22T05:19:04;100537.38;;;21.10;100.00
21504;BME280;10913;51.992;9.228;2023-06-22T05:21:30;100537.25;;;21.13;100.00
21504;BME280;10913;51.992;9.228;2023-06-22T05:23:56;100532.63;;;21.17;100.00
21504;BME280;10913;51.992;9.228;2023-06-22T05:26:26;100532.47;;;21.20;100.00
21504;BME280;10913;51.992;9.228;2023-06-22T05:28:52;100534.06;;;21.24;100.00
21504;BME280;10913;51.992;9.228;2023-06-22T05:31:18;100533.94;;;21.27;100.00
21504;BME280;10913;51.992;9.228;2023-06-22T05:33:45;100533.81;;;21.30;100.00
21504;BME280;10913;51.992;9.228;2023-06-22T05:36:11;100533.66;;;21.33;100.00
21504;BME280;10913;51.992;9.228;2023-06-22T05:38:38;100537.97;;;21.37;100.00
21504;BME280;10913;51.992;9.228;2023-06-22T05:41:03;100534.31;;;21.38;100.00
21504;BME280;10913;51.992;9.228;2023-06-22T05:43:29;100536.91;;;21.40;100.00
21504;BME280;10913;51.992;9.228;2023-06-22T05:45:54;100534.94;;;21.43;100.00
21504;BME280;10913;51.992;9.228;2023-06-22T05:48:20;100528.63;;;21.44;100.00
21504;BME280;10913;51.992;9.228;2023-06-22T05:50:45;100529.44;;;21.46;100.00
21504;BME280;10913;51.992;9.228;2023-06-22T05:53:11;100536.34;;;21.52;100.00
21504;BME280;10913;51.992;9.228;2023-06-22T05:55:36;100534.38;;;21.55;100.00
21504;BME280;10913;51.992;9.228;2023-06-22T05:58:02;100535.94;;;21.59;100.00
21504;BME280;10913;51.992;9.228;2023-06-22T06:00:29;100541.13;;;21.64;100.00
21504;BME280;10913;51.992;9.228;2023-06-22T06:02:54;100543.66;;;21.67;100.00
21504;BME280;10913;51.992;9.228;2023-06-22T06:05:19;100530.16;;;21.69;100.00
21504;BME280;10913;51.992;9.228;2023-06-22T06:07:45;100523.81;;;21.70;100.00
21504;BME280;10913;51.992;9.228;2023-06-22T06:10:11;100521.94;;;21.72;100.00
21504;BME280;10913;51.992;9.228;2023-06-22T06:12:36;100530.72;;;21.75;100.00
21504;BME280;10913;51.992;9.228;2023-06-22T06:15:03;100532.28;;;21.79;100.00
21504;BME280;10913;51.992;9.228;2023-06-22T06:17:28;100524.81;;;21.86;100.00
21504;BME280;10913;51.992;9.228;2023-06-22T06:19:53;100528.16;;;21.91;100.00
21504;BME280;10913;51.992;9.228;2023-06-22T06:22:19;100530.69;;;21.94;100.00
21504;BME280;10913;51.992;9.228;2023-06-22T06:24:46;100520.66;;;21.97;100.00
21504;BME280;10913;51.992;9.228;2023-06-22T06:27:12;100523.13;;;22.02;100.00
21504;BME280;10913;51.992;9.228;2023-06-22T06:29:38;100531.03;;;22.05;100.00
21504;BME280;10913;51.992;9.228;2023-06-22T06:32:03;100526.31;;;22.10;99.79
21504;BME280;10913;51.992;9.228;2023-06-22T06:34:29;100519.03;;;22.12;100.00
21504;BME280;10913;51.992;9.228;2023-06-22T06:36:54;100534.06;;;22.16;100.00
21504;BME280;10913;51.992;9.228;2023-06-22T06:39:19;100533.13;;;22.17;100.00
21504;BME280;10913;51.992;9.228;2023-06-22T06:41:45;100528.69;;;22.16;100.00
21504;BME280;10913;51.992;9.228;2023-06-22T06:44:11;100526.88;;;22.17;100.00
21504;BME280;10913;51.992;9.228;2023-06-22T06:46:36;100535.72;;;22.19;100.00
21504;BME280;10913;51.992;9.228;2023-06-22T06:49:02;100524.00;;;22.20;99.98
21504;BME280;10913;51.992;9.228;2023-06-22T06:51:27;100532.78;;;22.23;99.24
21504;BME280;10913;51.992;9.228;2023-06-22T06:53:53;100533.44;;;22.28;99.27
21504;BME280;10913;51.992;9.228;2023-06-22T06:56:18;100525.22;;;22.31;99.79
21504;BME280;10913;51.992;9.228;2023-06-22T06:58:43;100533.84;;;22.38;98.74
21504;BME280;10913;51.992;9.228;2023-06-22T07:01:10;100534.47;;;22.43;98.00
21504;BME280;10913;51.992;9.228;2023-06-22T07:03:36;100533.28;;;22.49;98.00
21504;BME280;10913;51.992;9.228;2023-06-22T07:06:01;100525.84;;;22.54;98.85
21504;BME280;10913;51.992;9.228;2023-06-22T07:08:27;100525.84;;;22.54;98.94
21504;BME280;10913;51.992;9.228;2023-06-22T07:10:52;100535.75;;;22.53;99.20
21504;BME280;10913;51.992;9.228;2023-06-22T07:13:17;100533.13;;;22.52;99.05
21504;BME280;10913;51.992;9.228;2023-06-22T07:15:43;100526.88;;;22.51;98.38
21504;BME280;10913;51.992;9.228;2023-06-22T07:18:08;100522.19;;;22.55;98.02
21504;BME280;10913;51.992;9.228;2023-06-22T07:20:34;100515.59;;;22.60;97.44
21504;BME280;10913;51.992;9.228;2023-06-22T07:22:59;100518.91;;;22.65;97.79
21504;BME280;10913;51.992;9.228;2023-06-22T07:25:25;100517.72;;;22.71;97.19
21504;BME280;10913;51.992;9.228;2023-06-22T07:28:02;100523.50;;;22.81;96.09
21504;BME280;10913;51.992;9.228;2023-06-22T07:30:28;100519.47;;;22.89;95.64
21504;BME280;10913;51.992;9.228;2023-06-22T07:32:54;100528.09;;;22.96;96.15
21504;BME280;10913;51.992;9.228;2023-06-22T07:35:19;100526.09;;;22.99;95.78
21504;BME280;10913;51.992;9.228;2023-06-22T07:37:45;100520.53;;;23.02;96.65
21504;BME280;10913;51.992;9.228;2023-06-22T07:40:10;100521.31;;;23.05;97.76
21504;BME280;10913;51.992;9.228;2023-06-22T07:42:36;100514.91;;;23.07;99.00
21504;BME280;10913;51.992;9.228;2023-06-22T07:45:04;100513.88;;;23.10;100.00
21504;BME280;10913;51.992;9.228;2023-06-22T07:47:33;100514.56;;;23.13;100.00
21504;BME280;10913;51.992;9.228;2023-06-22T07:50:00;100519.81;;;23.16;100.00
21504;BME280;10913;51.992;9.228;2023-06-22T07:52:30;100518.72;;;23.19;100.00
21504;BME280;10913;51.992;9.228;2023-06-22T07:54:55;100521.34;;;23.20;100.00
21504;BME280;10913;51.992;9.228;2023-06-22T07:57:21;100515.72;;;23.25;100.00
21504;BME280;10913;51.992;9.228;2023-06-22T07:59:46;100520.06;;;23.27;100.00
21504;BME280;10913;51.992;9.228;2023-06-22T08:02:12;100522.50;;;23.32;100.00
21504;BME280;10913;51.992;9.228;2023-06-22T08:04:37;100516.16;;;23.33;100.00
21504;BME280;10913;51.992;9.228;2023-06-22T08:07:03;100520.59;;;23.34;100.00
21504;BME280;10913;51.992;9.228;2023-06-22T08:09:30;100516.06;;;23.34;100.00
21504;BME280;10913;51.992;9.228;2023-06-22T08:11:56;100509.72;;;23.35;100.00
21504;BME280;10913;51.992;9.228;2023-06-22T08:14:25;100514.94;;;23.38;100.00
21504;BME280;10913;51.992;9.228;2023-06-22T08:16:50;100510.41;;;23.39;100.00
21504;BME280;10913;51.992;9.228;2023-06-22T08:19:16;100510.41;;;23.39;100.00
21504;BME280;10913;51.992;9.228;2023-06-22T08:21:42;100505.00;;;23.39;100.00
21504;BME280;10913;51.992;9.228;2023-06-22T08:24:07;100513.09;;;23.39;100.00
21504;BME280;10913;51.992;9.228;2023-06-22T08:26:33;100512.16;;;23.40;100.00
21504;BME280;10913;51.992;9.228;2023-06-22T08:29:02;100513.88;;;23.41;100.00
21504;BME280;10913;51.992;9.228;2023-06-22T08:31:27;100516.66;;;23.40;100.00
21504;BME280;10913;51.992;9.228;2023-06-22T08:33:53;100512.16;;;23.40;100.00
21504;BME280;10913;51.992;9.228;2023-06-22T08:36:18;100510.22;;;23.42;100.00
21504;BME280;10913;51.992;9.228;2023-06-22T08:38:43;100497.53;;;23.44;100.00
21504;BME280;10913;51.992;9.228;2023-06-22T08:41:10;100503.56;;;23.49;100.00
21504;BME280;10913;51.992;9.228;2023-06-22T08:43:35;100499.75;;;23.53;100.00
21504;BME280;10913;51.992;9.228;2023-06-22T08:46:01;100492.25;;;23.58;99.26
21504;BME280;10913;51.992;9.228;2023-06-22T08:48:28;100481.91;;;23.66;99.51
21504;BME280;10913;51.992;9.228;2023-06-22T08:50:53;100488.69;;;23.74;100.00
21504;BME280;10913;51.992;9.228;2023-06-22T08:53:19;100484.47;;;23.84;100.00
21504;BME280;10913;51.992;9.228;2023-06-22T08:55:44;100484.81;;;23.93;100.00
21504;BME280;10913;51.992;9.228;2023-06-22T08:58:10;100482.69;;;23.98;100.00
21504;BME280;10913;51.992;9.228;2023-06-22T09:00:36;100487.06;;;24.01;99.19
21504;BME280;10913;51.992;9.228;2023-06-22T09:03:02;100480.50;;;24.05;98.67
21504;BME280;10913;51.992;9.228;2023-06-22T09:05:28;100466.75;;;24.10;97.61
21504;BME280;10913;51.992;9.228;2023-06-22T09:07:55;100469.09;;;24.16;96.57
21504;BME280;10913;51.992;9.228;2023-06-22T09:10:20;100469.75;;;24.19;96.95
21504;BME280;10913;51.992;9.228;2023-06-22T09:12:46;100459.59;;;24.24;96.69
21504;BME280;10913;51.992;9.228;2023-06-22T09:15:11;100457.56;;;24.28;96.63
21504;BME280;10913;51.992;9.228;2023-06-22T09:17:37;100460.19;;;24.29;96.99
21504;BME280;10913;51.992;9.228;2023-06-22T09:20:03;100445.91;;;24.27;97.89
21504;BME280;10913;51.992;9.228;2023-06-22T09:22:31;100445.91;;;24.27;98.02
21504;BME280;10913;51.992;9.228;2023-06-22T09:24:58;100440.50;;;24.27;98.05
21504;BME280;10913;51.992;9.228;2023-06-22T09:27:24;100443.28;;;24.26;98.58
21504;BME280;10913;51.992;9.228;2023-06-22T09:29:50;100447.81;;;24.25;100.00
21504;BME280;10913;51.992;9.228;2023-06-22T09:32:15;100442.66;;;24.21;100.00
21504;BME280;10913;51.992;9.228;2023-06-22T09:34:41;100451.47;;;24.24;100.00
21504;BME280;10913;51.992;9.228;2023-06-22T09:37:06;100440.31;;;24.30;99.59
21504;BME280;10913;51.992;9.228;2023-06-22T09:39:32;100440.69;;;24.38;100.00
21504;BME280;10913;51.992;9.228;2023-06-22T09:41:59;100440.13;;;24.48;100.00
21504;BME280;10913;51.992;9.228;2023-06-22T09:44:25;100445.94;;;24.56;100.00
21504;BME280;10913;51.992;9.228;2023-06-22T09:46:50;100446.91;;;24.55;98.40
21504;BME280;10913;51.992;9.228;2023-06-22T09:49:16;100446.59;;;24.59;98.39
21504;BME280;10913;51.992;9.228;2023-06-22T09:51:41;100440.72;;;24.67;96.68
21504;BME280;10913;51.992;9.228;2023-06-22T09:54:06;100442.66;;;24.79;95.18
21504;BME280;10913;51.992;9.228;2023-06-22T09:56:31;100435.03;;;25.00;95.73
21504;BME280;10913;51.992;9.228;2023-06-22T09:58:57;100444.66;;;25.18;95.38
21504;BME280;10913;51.992;9.228;2023-06-22T10:01:22;100435.25;;;25.38;92.91
21504;BME280;10913;51.992;9.228;2023-06-22T10:03:48;100438.09;;;25.63;90.19
21504;BME280;10913;51.992;9.228;2023-06-22T10:06:14;100428.53;;;25.85;88.99
21504;BME280;10913;51.992;9.228;2023-06-22T10:08:40;100423.16;;;25.97;86.22
21504;BME280;10913;51.992;9.228;2023-06-22T10:11:06;100411.47;;;26.09;85.94
21504;BME280;10913;51.992;9.228;2023-06-22T10:13:31;100400.44;;;26.25;87.04
21504;BME280;10913;51.992;9.228;2023-06-22T10:15:56;100396.13;;;26.48;89.12
21504;BME280;10913;51.992;9.228;2023-06-22T10:18:22;100400.47;;;26.76;88.25
21504;BME280;10913;51.992;9.228;2023-06-22T10:20:49;100391.53;;;26.99;84.19
21504;BME280;10913;51.992;9.228;2023-06-22T10:23:16;100390.00;;;27.08;80.79
21504;BME280;10913;51.992;9.228;2023-06-22T10:25:41;100398.19;;;27.19;82.36
21504;BME280;10913;51.992;9.228;2023-06-22T10:28:07;100401.78;;;27.43;83.67
21504;BME280;10913;51.992;9.228;2023-06-22T10:30:32;100387.78;;;27.73;82.42
21504;BME280;10913;51.992;9.228;2023-06-22T10:32:58;100391.06;;;27.90;75.59
21504;BME280;10913;51.992;9.228;2023-06-22T10:35:23;100389.22;;;27.90;75.88
21504;BME280;10913;51.992;9.228;2023-06-22T10:37:48;100386.09;;;27.84;76.02
21504;BME280;10913;51.992;9.228;2023-06-22T10:40:16;100382.91;;;27.90;77.65
21504;BME280;10913;51.992;9.228;2023-06-22T10:42:42;100381.13;;;28.12;77.68
21504;BME280;10913;51.992;9.228;2023-06-22T10:45:09;100388.09;;;28.28;77.62
21504;BME280;10913;51.992;9.228;2023-06-22T10:47:35;100379.06;;;28.38;76.65
21504;BME280;10913;51.992;9.228;2023-06-22T10:50:01;100382.78;;;28.60;77.15
21504;BME280;10913;51.992;9.228;2023-06-22T10:52:26;100372.69;;;28.51;72.89
21504;BME280;10913;51.992;9.228;2023-06-22T10:54:52;100367.25;;;28.51;74.38
21504;BME280;10913;51.992;9.228;2023-06-22T10:57:18;100368.34;;;28.70;75.42
21504;BME280;10913;51.992;9.228;2023-06-22T10:59:43;100369.97;;;28.84;74.58
21504;BME280;10913;51.992;9.228;2023-06-22T11:02:09;100362.69;;;28.96;74.41
21504;BME280;10913;51.992;9.228;2023-06-22T11:04:34;100348.41;;;29.03;74.63
21504;BME280;10913;51.992;9.228;2023-06-22T11:07:00;100342.63;;;28.97;73.12
21504;BME280;10913;51.992;9.228;2023-06-22T11:09:25;100341.91;;;28.95;73.97
21504;BME280;10913;51.992;9.228;2023-06-22T11:11:51;100333.94;;;29.03;74.76
21504;BME280;10913;51.992;9.228;2023-06-22T11:14:19;100332.81;;;29.17;74.54
21504;BME280;10913;51.992;9.228;2023-06-22T11:16:44;100322.88;;;29.27;73.78
21504;BME280;10913;51.992;9.228;2023-06-22T11:19:11;100319.88;;;29.41;73.82
21504;BME280;10913;51.992;9.228;2023-06-22T11:21:37;100311.41;;;29.55;73.91
21504;BME280;10913;51.992;9.228;2023-06-22T11:24:02;100308.97;;;29.73;73.87
21504;BME280;10913;51.992;9.228;2023-06-22T11:26:28;100301.31;;;29.88;73.21
21504;BME280;10913;51.992;9.228;2023-06-22T11:28:53;100300.25;;;30.00;73.20
21504;BME280;10913;51.992;9.228;2023-06-22T11:31:19;100287.38;;;30.02;72.57
21504;BME280;10913;51.992;9.228;2023-06-22T11:33:44;100291.63;;;29.95;72.33
21504;BME280;10913;51.992;9.228;2023-06-22T11:36:13;100295.75;;;29.68;72.39
21504;BME280;10913;51.992;9.228;2023-06-22T11:38:39;100298.06;;;29.52;74.30
21504;BME280;10913;51.992;9.228;2023-06-22T11:41:06;100292.94;;;29.27;72.95
21504;BME280;10913;51.992;9.228;2023-06-22T11:43:31;100286.31;;;29.08;73.48
21504;BME280;10913;51.992;9.228;2023-06-22T11:45:57;100280.78;;;28.99;74.30
21504;BME280;10913;51.992;9.228;2023-06-22T11:48:24;100279.91;;;28.98;74.40
21504;BME280;10913;51.992;9.228;2023-06-22T11:50:49;100287.63;;;28.93;75.13
21504;BME280;10913;51.992;9.228;2023-06-22T11:53:15;100273.38;;;28.78;74.36
21504;BME280;10913;51.992;9.228;2023-06-22T11:55:44;100271.81;;;28.65;74.98
21504;BME280;10913;51.992;9.228;2023-06-22T11:58:09;100267.59;;;28.61;75.82
21504;BME280;10913;51.992;9.228;2023-06-22T12:00:35;100266.00;;;28.58;76.53
21504;BME280;10913;51.992;9.228;2023-06-22T12:03:00;100271.59;;;28.57;76.51
21504;BME280;10913;51.992;9.228;2023-06-22T12:05:26;100271.31;;;28.60;77.04
21504;BME280;10913;51.992;9.228;2023-06-22T12:07:54;100280.22;;;28.73;77.51
21504;BME280;10913;51.992;9.228;2023-06-22T12:10:21;100270.19;;;28.85;77.07
21504;BME280;10913;51.992;9.228;2023-06-22T12:12:46;100260.41;;;28.93;76.67
21504;BME280;10913;51.992;9.228;2023-06-22T12:15:12;100259.63;;;29.02;76.52
21504;BME280;10913;51.992;9.228;2023-06-22T12:17:38;100252.44;;;29.01;76.14
21504;BME280;10913;51.992;9.228;2023-06-22T12:20:04;100254.44;;;28.99;75.95
21504;BME280;10913;51.992;9.228;2023-06-22T12:22:34;100244.09;;;28.93;75.85
21504;BME280;10913;51.992;9.228;2023-06-22T12:25:00;100239.25;;;28.97;75.94
21504;BME280;10913;51.992;9.228;2023-06-22T12:27:25;100239.72;;;29.02;75.79
21504;BME280;10913;51.992;9.228;2023-06-22T12:29:51;100234.00;;;29.05;76.71
21504;BME280;10913;51.992;9.228;2023-06-22T12:32:16;100234.13;;;29.14;76.13
21504;BME280;10913;51.992;9.228;2023-06-22T12:34:42;100222.31;;;29.25;76.16
21504;BME280;10913;51.992;9.228;2023-06-22T12:37:08;100225.84;;;29.37;75.44
21504;BME280;10913;51.992;9.228;2023-06-22T12:39:33;100225.59;;;29.40;75.15
21504;BME280;10913;51.992;9.228;2023-06-22T12:41:59;100219.88;;;29.43;75.81
21504;BME280;10913;51.992;9.228;2023-06-22T12:44:24;100214.94;;;29.37;76.26
21504;BME280;10913;51.992;9.228;2023-06-22T12:46:50;100221.19;;;29.28;75.41
21504;BME280;10913;51.992;9.228;2023-06-22T12:49:15;100225.53;;;29.19;75.55
21504;BME280;10913;51.992;9.228;2023-06-22T12:51:41;100227.59;;;29.06;75.53